sensor_id;sensor_type;location;lat;lon;timestamp;pressure;altitude;pressure_sealevel;temperature;humidity
50682;BME280;36779;52.168;20.878;2023-06-19T00:01:13;100433.15;;;13.68;64.72
50682;BME280;36779;52.168;20.878;2023-06-19T00:03:42;100434.05;;;13.71;64.78
50682;BME280;36779;52.168;20.878;2023-06-19T00:06:16;100440.46;;;13.77;64.83
50682;BME280;36779;52.168;20.878;2023-06-19T00:08:49;100438.82;;;13.77;64.70
50682;BME280;36779;52.168;20.878;2023-06-19T00:11:18;100438.45;;;13.67;64.58
50682;BME280;36779;52.168;20.878;2023-06-19T00:13:47;100440.05;;;13.56;64.54
50682;BME280;36779;52.168;20.878;2023-06-19T00:16:16;100440.02;;;13.50;64.67
50682;BME280;36779;52.168;20.878;2023-06-19T00:18:47;100442.29;;;13.55;64.72
50682;BME280;36779;52.168;20.878;2023-06-19T00:21:18;100439.96;;;13.61;64.97
50682;BME280;36779;52.168;20.878;2023-06-19T00:23:50;100438.95;;;13.65;65.06
50682;BME280;36779;52.168;20.878;2023-06-19T00:26:31;100430.89;;;13.56;64.65
50682;BME280;36779;52.168;20.878;2023-06-19T00:29:04;100432.51;;;13.39;64.66
50682;BME280;36779;52.168;20.878;2023-06-19T00:31:35;100432.36;;;13.27;64.52
50682;BME280;36779;52.168;20.878;2023-06-19T00:34:07;100436.73;;;13.22;64.68
50682;BME280;36779;52.168;20.878;2023-06-19T00:36:36;100439.96;;;13.28;64.97
50682;BME280;36779;52.168;20.878;2023-06-19T00:39:13;100439.52;;;13.35;65.14
50682;BME280;36779;52.168;20.878;2023-06-19T00:41:43;100438.48;;;13.39;65.46
50682;BME280;36779;52.168;20.878;2023-06-19T00:44:19;100438.09;;;13.41;65.31
50682;BME280;36779;52.168;20.878;2023-06-19T00:46:54;100442.34;;;13.36;65.28
50682;BME280;36779;52.168;20.878;2023-06-19T00:49:29;100442.61;;;13.40;65.18
50682;BME280;36779;52.168;20.878;2023-06-19T00:51:59;100444.80;;;13.41;65.14
50682;BME280;36779;52.168;20.878;2023-06-19T00:54:38;100444.87;;;13.35;65.20
50682;BME280;36779;52.168;20.878;2023-06-19T00:57:12;100446.35;;;13.19;64.56
50682;BME280;36779;52.168;20.878;2023-06-19T00:59:41;100444.80;;;13.03;64.82
50682;BME280;36779;52.168;20.878;2023-06-19T01:02:11;100442.92;;;12.94;64.83
50682;BME280;36779;52.168;20.878;2023-06-19T01:04:41;100441.09;;;12.93;65.03
50682;BME280;36779;52.168;20.878;2023-06-19T01:07:12;100436.66;;;12.94;64.95
50682;BME280;36779;52.168;20.878;2023-06-19T01:09:48;100433.52;;;12.89;64.91
50682;BME280;36779;52.168;20.878;2023-06-19T01:12:24;100431.80;;;12.84;65.16
50682;BME280;36779;52.168;20.878;2023-06-19T01:15:03;100427.86;;;12.78;65.06
50682;BME280;36779;52.168;20.878;2023-06-19T01:17:35;100431.04;;;12.74;65.16
50682;BME280;36779;52.168;20.878;2023-06-19T01:20:15;100430.64;;;12.72;65.22
50682;BME280;36779;52.168;20.878;2023-06-19T01:22:53;100433.98;;;12.65;65.03
50682;BME280;36779;52.168;20.878;2023-06-19T01:25:26;100433.67;;;12.58;64.97
50682;BME280;36779;52.168;20.878;2023-06-19T01:28:00;100434.19;;;12.55;65.25
50682;BME280;36779;52.168;20.878;2023-06-19T01:30:29;100430.55;;;12.54;65.14
50682;BME280;36779;52.168;20.878;2023-06-19T01:33:11;100433.38;;;12.51;65.43
50682;BME280;36779;52.168;20.878;2023-06-19T01:35:47;100429.95;;;12.57;65.74
50682;BME280;36779;52.168;20.878;2023-06-19T01:38:21;100427.20;;;12.63;65.38
50682;BME280;36779;52.168;20.878;2023-06-19T01:40:56;100432.14;;;12.57;65.10
50682;BME280;36779;52.168;20.878;2023-06-19T01:43:27;100436.91;;;12.45;65.19
50682;BME280;36779;52.168;20.878;2023-06-19T01:46:00;100434.33;;;12.36;65.07
50682;BME280;36779;52.168;20.878;2023-06-19T01:48:37;100435.67;;;12.32;65.11
50682;BME280;36779;52.168;20.878;2023-06-19T01:51:07;100434.39;;;12.33;65.41
50682;BME280;36779;52.168;20.878;2023-06-19T01:53:39;100436.55;;;12.33;65.38
50682;BME280;36779;52.168;20.878;2023-06-19T01:56:11;100435.63;;;12.30;65.40
50682;BME280;36779;52.168;20.878;2023-06-19T01:58:44;100436.03;;;12.36;65.70
50682;BME280;36779;52.168;20.878;2023-06-19T02:01:14;100436.08;;;12.49;65.95
50682;BME280;36779;52.168;20.878;2023-06-19T02:03:48;100427.92;;;12.59;65.98
50682;BME280;36779;52.168;20.878;2023-06-19T02:06:17;100428.95;;;12.54;65.63
50682;BME280;36779;52.168;20.878;2023-06-19T02:08:49;100432.35;;;12.46;65.63
50682;BME280;36779;52.168;20.878;2023-06-19T02:11:19;100432.16;;;12.37;65.39
50682;BME280;36779;52.168;20.878;2023-06-19T02:13:48;100432.08;;;12.28;65.60
50682;BME280;36779;52.168;20.878;2023-06-19T02:16:20;100431.67;;;12.20;65.56
50682;BME280;36779;52.168;20.878;2023-06-19T02:18:53;100430.29;;;12.12;65.49
50682;BME280;36779;52.168;20.878;2023-06-19T02:21:22;100429.73;;;12.04;65.53
50682;BME280;36779;52.168;20.878;2023-06-19T02:23:56;100434.16;;;11.98;65.70
50682;BME280;36779;52.168;20.878;2023-06-19T02:26:29;100440.91;;;11.95;65.59
50682;BME280;36779;52.168;20.878;2023-06-19T02:29:02;100441.69;;;11.91;65.72
50682;BME280;36779;52.168;20.878;2023-06-19T02:31:31;100438.33;;;11.88;65.63
50682;BME280;36779;52.168;20.878;2023-06-19T02:34:04;100434.68;;;11.85;65.76
50682;BME280;36779;52.168;20.878;2023-06-19T02:36:35;100436.83;;;11.85;65.87
50682;BME280;36779;52.168;20.878;2023-06-19T02:39:05;100437.29;;;11.84;65.79
50682;BME280;36779;52.168;20.878;2023-06-19T02:41:39;100433.35;;;11.85;65.82
50682;BME280;36779;52.168;20.878;2023-06-19T02:44:11;100436.42;;;11.86;65.80
50682;BME280;36779;52.168;20.878;2023-06-19T02:46:40;100436.76;;;11.84;65.97
50682;BME280;36779;52.168;20.878;2023-06-19T02:49:14;100437.97;;;11.83;66.05
50682;BME280;36779;52.168;20.878;2023-06-19T02:51:45;100437.06;;;11.83;66.14
50682;BME280;36779;52.168;20.878;2023-06-19T02:54:18;100437.73;;;11.87;66.03
50682;BME280;36779;52.168;20.878;2023-06-19T02:56:47;100440.71;;;11.97;66.53
50682;BME280;36779;52.168;20.878;2023-06-19T02:59:18;100444.77;;;12.13;66.70
50682;BME280;36779;52.168;20.878;2023-06-19T03:01:50;100449.67;;;12.23;66.53
50682;BME280;36779;52.168;20.878;2023-06-19T03:04:19;100451.14;;;12.23;66.36
50682;BME280;36779;52.168;20.878;2023-06-19T03:06:48;100451.35;;;12.20;66.24
50682;BME280;36779;52.168;20.878;2023-06-19T03:09:22;100457.09;;;12.19;66.43
50682;BME280;36779;52.168;20.878;2023-06-19T03:11:51;100452.58;;;12.23;66.30
50682;BME280;36779;52.168;20.878;2023-06-19T03:14:22;100451.20;;;12.26;66.28
50682;BME280;36779;52.168;20.878;2023-06-19T03:16:52;100450.02;;;12.28;66.36
50682;BME280;36779;52.168;20.878;2023-06-19T03:19:26;100446.64;;;12.32;66.33
50682;BME280;36779;52.168;20.878;2023-06-19T03:21:55;100451.00;;;12.34;66.45
50682;BME280;36779;52.168;20.878;2023-06-19T03:24:24;100453.27;;;12.47;66.75
50682;BME280;36779;52.168;20.878;2023-06-19T03:26:56;100451.60;;;12.59;66.86
50682;BME280;36779;52.168;20.878;2023-06-19T03:29:31;100446.64;;;12.59;66.44
50682;BME280;36779;52.168;20.878;2023-06-19T03:32:10;100444.51;;;12.57;66.41
50682;BME280;36779;52.168;20.878;2023-06-19T03:34:40;100448.52;;;12.56;66.30
50682;BME280;36779;52.168;20.878;2023-06-19T03:37:10;100451.40;;;12.64;66.82
50682;BME280;36779;52.168;20.878;2023-06-19T03:39:42;100458.39;;;12.77;67.10
50682;BME280;36779;52.168;20.878;2023-06-19T03:42:19;100459.79;;;12.87;66.86
50682;BME280;36779;52.168;20.878;2023-06-19T03:44:56;100464.04;;;12.90;66.81
50682;BME280;36779;52.168;20.878;2023-06-19T03:50:38;100461.95;;;12.94;66.66
50682;BME280;36779;52.168;20.878;2023-06-19T03:53:10;100466.58;;;13.04;66.64
50682;BME280;36779;52.168;20.878;2023-06-19T03:55:42;100467.94;;;13.19;67.06
50682;BME280;36779;52.168;20.878;2023-06-19T03:58:19;100461.29;;;13.32;66.95
50682;BME280;36779;52.168;20.878;2023-06-19T04:00:54;100455.81;;;13.39;66.76
50682;BME280;36779;52.168;20.878;2023-06-19T04:06:08;100457.48;;;13.57;67.20
50682;BME280;36779;52.168;20.878;2023-06-19T04:08:42;100459.58;;;13.66;67.25
50682;BME280;36779;52.168;20.878;2023-06-19T04:11:14;100462.67;;;13.79;66.91
50682;BME280;36779;52.168;20.878;2023-06-19T04:13:45;100462.50;;;13.97;67.14
50682;BME280;36779;52.168;20.878;2023-06-19T04:16:17;100464.64;;;14.21;67.40
50682;BME280;36779;52.168;20.878;2023-06-19T04:18:47;100460.10;;;14.35;67.35
50682;BME280;36779;52.168;20.878;2023-06-19T04:21:20;100461.44;;;14.45;67.13
50682;BME280;36779;52.168;20.878;2023-06-19T04:23:50;100458.25;;;14.54;67.20
50682;BME280;36779;52.168;20.878;2023-06-19T04:26:21;100458.50;;;14.64;67.15
50682;BME280;36779;52.168;20.878;2023-06-19T04:28:52;100461.31;;;14.77;67.48
50682;BME280;36779;52.168;20.878;2023-06-19T04:31:23;100455.50;;;14.89;67.34
50682;BME280;36779;52.168;20.878;2023-06-19T04:33:56;100460.70;;;14.97;67.24
50682;BME280;36779;52.168;20.878;2023-06-19T04:36:25;100460.11;;;15.06;67.24
50682;BME280;36779;52.168;20.878;2023-06-19T04:39:09;100461.30;;;15.52;68.04
50682;BME280;36779;52.168;20.878;2023-06-19T04:41:50;100456.06;;;16.57;69.05
50682;BME280;36779;52.168;20.878;2023-06-19T04:44:26;100458.84;;;17.71;69.41
50682;BME280;36779;52.168;20.878;2023-06-19T04:46:57;100455.09;;;18.67;69.26
50682;BME280;36779;52.168;20.878;2023-06-19T04:49:36;100451.36;;;19.57;69.02
50682;BME280;36779;52.168;20.878;2023-06-19T04:52:07;100453.23;;;20.62;69.16
50682;BME280;36779;52.168;20.878;2023-06-19T04:54:39;100452.81;;;21.56;68.41
50682;BME280;36779;52.168;20.878;2023-06-19T04:57:27;100452.45;;;22.37;67.64
50682;BME280;36779;52.168;20.878;2023-06-19T05:00:01;100442.90;;;23.11;67.44
50682;BME280;36779;52.168;20.878;2023-06-19T05:02:38;100444.33;;;23.91;67.01
50682;BME280;36779;52.168;20.878;2023-06-19T05:05:10;100445.27;;;24.55;66.31
50682;BME280;36779;52.168;20.878;2023-06-19T05:07:51;100448.92;;;25.21;65.74
50682;BME280;36779;52.168;20.878;2023-06-19T05:10:22;100450.00;;;25.71;64.85
50682;BME280;36779;52.168;20.878;2023-06-19T05:12:54;100451.83;;;26.28;64.83
50682;BME280;36779;52.168;20.878;2023-06-19T05:15:24;100452.80;;;26.82;63.99
50682;BME280;36779;52.168;20.878;2023-06-19T05:17:52;100454.39;;;27.11;63.10
50682;BME280;36779;52.168;20.878;2023-06-19T05:20:28;100456.20;;;27.44;62.76
50682;BME280;36779;52.168;20.878;2023-06-19T05:22:57;100456.87;;;27.89;62.65
50682;BME280;36779;52.168;20.878;2023-06-19T05:25:29;100459.29;;;28.22;62.27
50682;BME280;36779;52.168;20.878;2023-06-19T05:28:02;100463.88;;;28.58;61.50
50682;BME280;36779;52.168;20.878;2023-06-19T05:30:38;100470.83;;;28.88;61.30
50682;BME280;36779;52.168;20.878;2023-06-19T05:33:15;100475.45;;;29.30;61.07
50682;BME280;36779;52.168;20.878;2023-06-19T05:35:46;100473.52;;;29.70;60.71
50682;BME280;36779;52.168;20.878;2023-06-19T05:38:23;100474.23;;;29.94;59.89
50682;BME280;36779;52.168;20.878;2023-06-19T05:40:58;100483.02;;;30.08;59.52
50682;BME280;36779;52.168;20.878;2023-06-19T05:43:36;100482.13;;;30.27;59.21
50682;BME280;36779;52.168;20.878;2023-06-19T05:46:06;100483.27;;;30.29;58.90
50682;BME280;36779;52.168;20.878;2023-06-19T05:48:37;100487.05;;;30.44;58.42
50682;BME280;36779;52.168;20.878;2023-06-19T05:51:06;100489.23;;;30.48;58.31
50682;BME280;36779;52.168;20.878;2023-06-19T05:53:36;100497.13;;;30.64;57.82
50682;BME280;36779;52.168;20.878;2023-06-19T05:56:07;100499.48;;;30.74;57.63
50682;BME280;36779;52.168;20.878;2023-06-19T05:58:37;100501.52;;;30.98;57.51
50682;BME280;36779;52.168;20.878;2023-06-19T06:01:06;100503.76;;;30.99;56.90
50682;BME280;36779;52.168;20.878;2023-06-19T06:03:39;100505.23;;;30.97;56.60
50682;BME280;36779;52.168;20.878;2023-06-19T06:06:11;100509.24;;;31.13;56.36
50682;BME280;36779;52.168;20.878;2023-06-19T06:08:42;100508.58;;;31.13;55.40
50682;BME280;36779;52.168;20.878;2023-06-19T06:11:11;100508.58;;;31.13;55.67
50682;BME280;36779;52.168;20.878;2023-06-19T06:13:40;100512.67;;;31.24;55.01
50682;BME280;36779;52.168;20.878;2023-06-19T06:16:10;100516.71;;;31.18;54.80
50682;BME280;36779;52.168;20.878;2023-06-19T06:18:39;100518.52;;;31.31;54.96
50682;BME280;36779;52.168;20.878;2023-06-19T06:21:11;100522.90;;;31.25;54.20
50682;BME280;36779;52.168;20.878;2023-06-19T06:23:44;100521.77;;;30.71;53.39
50682;BME280;36779;52.168;20.878;2023-06-19T06:26:13;100522.81;;;30.02;52.83
50682;BME280;36779;52.168;20.878;2023-06-19T06:28:42;100526.83;;;29.29;52.62
50682;BME280;36779;52.168;20.878;2023-06-19T06:31:12;100527.98;;;28.59;52.63
50682;BME280;36779;52.168;20.878;2023-06-19T06:33:41;100532.04;;;27.95;52.59
50682;BME280;36779;52.168;20.878;2023-06-19T06:36:14;100532.08;;;27.28;52.52
50682;BME280;36779;52.168;20.878;2023-06-19T06:38:58;100532.23;;;26.62;52.65
50682;BME280;36779;52.168;20.878;2023-06-19T06:41:29;100533.29;;;26.16;53.10
50682;BME280;36779;52.168;20.878;2023-06-19T06:43:58;100539.52;;;25.70;52.95
50682;BME280;36779;52.168;20.878;2023-06-19T06:46:29;100535.69;;;25.26;53.21
50682;BME280;36779;52.168;20.878;2023-06-19T06:49:01;100535.11;;;24.90;53.22
50682;BME280;36779;52.168;20.878;2023-06-19T06:51:30;100532.68;;;24.55;53.34
50682;BME280;36779;52.168;20.878;2023-06-19T06:53:59;100534.86;;;24.34;53.63
50682;BME280;36779;52.168;20.878;2023-06-19T06:56:28;100531.02;;;24.11;53.70
50682;BME280;36779;52.168;20.878;2023-06-19T06:58:57;100529.46;;;23.96;53.84
50682;BME280;36779;52.168;20.878;2023-06-19T07:01:28;100537.81;;;23.84;53.96
50682;BME280;36779;52.168;20.878;2023-06-19T07:03:57;100533.73;;;23.72;53.94
50682;BME280;36779;52.168;20.878;2023-06-19T07:06:28;100532.13;;;23.62;54.12
50682;BME280;36779;52.168;20.878;2023-06-19T07:08:57;100530.13;;;23.68;54.34
50682;BME280;36779;52.168;20.878;2023-06-19T07:11:26;100527.97;;;23.84;54.47
50682;BME280;36779;52.168;20.878;2023-06-19T07:14:00;100520.77;;;23.93;54.48
50682;BME280;36779;52.168;20.878;2023-06-19T07:16:30;100520.49;;;24.00;54.51
50682;BME280;36779;52.168;20.878;2023-06-19T07:18:59;100517.55;;;23.92;54.05
50682;BME280;36779;52.168;20.878;2023-06-19T07:21:30;100526.40;;;23.81;54.19
50682;BME280;36779;52.168;20.878;2023-06-19T07:23:59;100523.54;;;23.80;54.25
50682;BME280;36779;52.168;20.878;2023-06-19T07:26:28;100528.34;;;23.66;54.04
50682;BME280;36779;52.168;20.878;2023-06-19T07:28:57;100527.23;;;23.48;54.01
50682;BME280;36779;52.168;20.878;2023-06-19T07:31:27;100523.46;;;23.35;54.03
50682;BME280;36779;52.168;20.878;2023-06-19T07:33:56;100523.02;;;23.26;54.05
50682;BME280;36779;52.168;20.878;2023-06-19T07:36:25;100527.64;;;23.18;53.96
50682;BME280;36779;52.168;20.878;2023-06-19T07:38:56;100528.15;;;23.02;53.92
50682;BME280;36779;52.168;20.878;2023-06-19T07:41:25;100527.95;;;22.91;54.01
50682;BME280;36779;52.168;20.878;2023-06-19T07:43:56;100530.11;;;22.86;54.05
50682;BME280;36779;52.168;20.878;2023-06-19T07:46:25;100530.50;;;22.81;54.06
50682;BME280;36779;52.168;20.878;2023-06-19T07:48:57;100531.35;;;22.69;53.94
50682;BME280;36779;52.168;20.878;2023-06-19T07:51:26;100531.39;;;22.59;53.86
50682;BME280;36779;52.168;20.878;2023-06-19T07:53:57;100534.06;;;22.57;54.01
50682;BME280;36779;52.168;20.878;2023-06-19T07:56:25;100530.75;;;22.60;54.13
50682;BME280;36779;52.168;20.878;2023-06-19T07:58:57;100531.34;;;22.59;54.15
50682;BME280;36779;52.168;20.878;2023-06-19T08:01:31;100532.67;;;22.63;54.23
50682;BME280;36779;52.168;20.878;2023-06-19T08:03:59;100530.95;;;22.72;54.33
50682;BME280;36779;52.168;20.878;2023-06-19T08:06:28;100532.98;;;22.80;54.39
50682;BME280;36779;52.168;20.878;2023-06-19T08:08:57;100533.23;;;22.89;54.46
50682;BME280;36779;52.168;20.878;2023-06-19T08:11:26;100533.76;;;23.02;54.57
50682;BME280;36779;52.168;20.878;2023-06-19T08:13:58;100532.67;;;23.11;54.42
50682;BME280;36779;52.168;20.878;2023-06-19T08:16:28;100530.41;;;23.17;54.41
50682;BME280;36779;52.168;20.878;2023-06-19T08:19:11;100530.66;;;23.25;54.28
50682;BME280;36779;52.168;20.878;2023-06-19T08:21:39;100528.27;;;23.27;54.28
50682;BME280;36779;52.168;20.878;2023-06-19T08:24:08;100532.96;;;23.25;54.18
50682;BME280;36779;52.168;20.878;2023-06-19T08:26:38;100529.80;;;23.24;54.14
50682;BME280;36779;52.168;20.878;2023-06-19T08:29:07;100532.95;;;23.23;53.96
50682;BME280;36779;52.168;20.878;2023-06-19T08:31:54;100532.98;;;23.24;54.16
50682;BME280;36779;52.168;20.878;2023-06-19T08:34:22;100530.49;;;23.33;54.20
50682;BME280;36779;52.168;20.878;2023-06-19T08:36:52;100537.27;;;23.40;54.25
50682;BME280;36779;52.168;20.878;2023-06-19T08:39:22;100535.08;;;23.47;54.12
50682;BME280;36779;52.168;20.878;2023-06-19T08:41:54;100532.65;;;23.58;54.11
50682;BME280;36779;52.168;20.878;2023-06-19T08:44:22;100537.77;;;23.72;54.18
50682;BME280;36779;52.168;20.878;2023-06-19T08:46:54;100539.96;;;23.82;54.00
50682;BME280;36779;52.168;20.878;2023-06-19T08:49:25;100540.11;;;23.91;53.76
50682;BME280;36779;52.168;20.878;2023-06-19T08:51:53;100537.92;;;24.00;53.69
50682;BME280;36779;52.168;20.878;2023-06-19T08:54:22;100537.39;;;24.14;53.73
50682;BME280;36779;52.168;20.878;2023-06-19T08:56:53;100537.05;;;24.37;53.76
50682;BME280;36779;52.168;20.878;2023-06-19T08:59:25;100535.55;;;24.61;53.60
50682;BME280;36779;52.168;20.878;2023-06-19T09:01:56;100534.52;;;24.86;53.51
50682;BME280;36779;52.168;20.878;2023-06-19T09:04:29;100535.59;;;25.10;53.31
50682;BME280;36779;52.168;20.878;2023-06-19T09:07:04;100534.08;;;25.33;53.25
50682;BME280;36779;52.168;20.878;2023-06-19T09:09:50;100525.56;;;25.55;53.08
50682;BME280;36779;52.168;20.878;2023-06-19T09:12:19;100524.07;;;25.80;53.04
50682;BME280;36779;52.168;20.878;2023-06-19T09:15:10;100521.29;;;26.06;52.93
50682;BME280;36779;52.168;20.878;2023-06-19T09:17:42;100525.36;;;26.34;52.74
50682;BME280;36779;52.168;20.878;2023-06-19T09:20:26;100524.35;;;26.70;52.82
50682;BME280;36779;52.168;20.878;2023-06-19T09:22:56;100524.02;;;26.98;52.53
50682;BME280;36779;52.168;20.878;2023-06-19T09:25:25;100521.85;;;27.22;52.32
50682;BME280;36779;52.168;20.878;2023-06-19T09:27:55;100526.95;;;27.48;52.13
50682;BME280;36779;52.168;20.878;2023-06-19T09:30:27;100526.98;;;27.73;51.95
50682;BME280;36779;52.168;20.878;2023-06-19T09:32:55;100529.80;;;27.93;51.71
50682;BME280;36779;52.168;20.878;2023-06-19T09:35:36;100529.46;;;28.13;51.34
50682;BME280;36779;52.168;20.878;2023-06-19T09:38:05;100527.27;;;28.22;51.09
50682;BME280;36779;52.168;20.878;2023-06-19T09:40:36;100525.17;;;28.24;50.71
50682;BME280;36779;52.168;20.878;2023-06-19T09:43:07;100522.33;;;28.28;50.59
50682;BME280;36779;52.168;20.878;2023-06-19T09:45:36;100522.42;;;28.34;50.41
50682;BME280;36779;52.168;20.878;2023-06-19T09:48:09;100517.65;;;28.44;50.42
50682;BME280;36779;52.168;20.878;2023-06-19T09:50:51;100519.30;;;28.68;50.30
50682;BME280;36779;52.168;20.878;2023-06-19T09:53:23;100522.70;;;28.96;50.27
50682;BME280;36779;52.168;20.878;2023-06-19T09:55:52;100523.73;;;29.13;49.98
50682;BME280;36779;52.168;20.878;2023-06-19T09:58:21;100522.52;;;29.26;49.83
50682;BME280;36779;52.168;20.878;2023-06-19T10:00:51;100516.40;;;29.46;49.86
50682;BME280;36779;52.168;20.878;2023-06-19T10:03:29;100518.71;;;29.66;49.60
50682;BME280;36779;52.168;20.878;2023-06-19T10:06:04;100512.92;;;29.75;49.22
50682;BME280;36779;52.168;20.878;2023-06-19T10:08:40;100512.86;;;29.77;48.93
50682;BME280;36779;52.168;20.878;2023-06-19T10:11:09;100505.34;;;29.90;48.83
50682;BME280;36779;52.168;20.878;2023-06-19T10:13:40;100504.58;;;29.95;48.40
50682;BME280;36779;52.168;20.878;2023-06-19T10:16:20;100506.44;;;30.07;48.37
50682;BME280;36779;52.168;20.878;2023-06-19T10:18:50;100502.58;;;30.28;48.39
50682;BME280;36779;52.168;20.878;2023-06-19T10:21:23;100505.70;;;30.55;48.29
50682;BME280;36779;52.168;20.878;2023-06-19T10:23:56;100507.22;;;30.72;47.93
50682;BME280;36779;52.168;20.878;2023-06-19T10:26:32;100507.02;;;30.89;48.00
50682;BME280;36779;52.168;20.878;2023-06-19T10:29:15;100505.33;;;31.01;47.71
50682;BME280;36779;52.168;20.878;2023-06-19T10:31:46;100508.14;;;30.93;47.31
50682;BME280;36779;52.168;20.878;2023-06-19T10:34:22;100509.02;;;30.88;47.17
50682;BME280;36779;52.168;20.878;2023-06-19T10:36:55;100506.36;;;30.90;47.07
50682;BME280;36779;52.168;20.878;2023-06-19T10:39:26;100506.22;;;30.92;46.85
50682;BME280;36779;52.168;20.878;2023-06-19T10:41:56;100503.69;;;31.00;46.80
50682;BME280;36779;52.168;20.878;2023-06-19T10:44:26;100502.70;;;31.04;46.48
50682;BME280;36779;52.168;20.878;2023-06-19T10:46:55;100495.22;;;31.00;46.26
50682;BME280;36779;52.168;20.878;2023-06-19T10:49:25;100500.42;;;31.14;46.32
50682;BME280;36779;52.168;20.878;2023-06-19T10:51:54;100497.54;;;31.18;46.07
50682;BME280;36779;52.168;20.878;2023-06-19T10:54:31;100498.26;;;31.27;46.16
50682;BME280;36779;52.168;20.878;2023-06-19T10:57:06;100500.88;;;31.48;46.08
50682;BME280;36779;52.168;20.878;2023-06-19T10:59:38;100497.59;;;31.64;45.91
50682;BME280;36779;52.168;20.878;2023-06-19T11:02:08;100502.37;;;31.76;45.81
50682;BME280;36779;52.168;20.878;2023-06-19T11:04:39;100501.09;;;31.91;45.65
50682;BME280;36779;52.168;20.878;2023-06-19T11:07:08;100501.19;;;31.87;45.02
50682;BME280;36779;52.168;20.878;2023-06-19T11:09:38;100501.30;;;31.52;44.59
50682;BME280;36779;52.168;20.878;2023-06-19T11:12:21;100493.17;;;31.28;44.73
50682;BME280;36779;52.168;20.878;2023-06-19T11:14:52;100495.29;;;31.18;44.78
50682;BME280;36779;52.168;20.878;2023-06-19T11:17:31;100492.03;;;31.27;44.83
50682;BME280;36779;52.168;20.878;2023-06-19T11:20:01;100494.48;;;31.34;44.80
50682;BME280;36779;52.168;20.878;2023-06-19T11:22:38;100492.30;;;31.40;44.57
50682;BME280;36779;52.168;20.878;2023-06-19T11:25:09;100494.17;;;31.32;44.26
50682;BME280;36779;52.168;20.878;2023-06-19T11:27:40;100491.95;;;31.21;43.96
50682;BME280;36779;52.168;20.878;2023-06-19T11:30:12;100489.20;;;31.25;43.97
50682;BME280;36779;52.168;20.878;2023-06-19T11:32:41;100487.55;;;31.23;43.91
50682;BME280;36779;52.168;20.878;2023-06-19T11:35:15;100486.58;;;31.46;44.13
50682;BME280;36779;52.168;20.878;2023-06-19T11:37:46;100482.36;;;31.75;43.99
50682;BME280;36779;52.168;20.878;2023-06-19T11:40:17;100477.75;;;31.72;43.47
50682;BME280;36779;52.168;20.878;2023-06-19T11:42:52;100476.56;;;31.70;43.31
50682;BME280;36779;52.168;20.878;2023-06-19T11:45:22;100473.83;;;31.85;43.42
50682;BME280;36779;52.168;20.878;2023-06-19T11:47:54;100475.63;;;32.03;43.46
50682;BME280;36779;52.168;20.878;2023-06-19T11:50:28;100476.00;;;32.19;43.27
50682;BME280;36779;52.168;20.878;2023-06-19T11:53:00;100470.09;;;32.27;43.13
50682;BME280;36779;52.168;20.878;2023-06-19T11:55:46;100470.89;;;32.29;42.77
50682;BME280;36779;52.168;20.878;2023-06-19T11:58:18;100467.21;;;32.10;42.63
50682;BME280;36779;52.168;20.878;2023-06-19T12:00:49;100461.19;;;32.08;42.85
50682;BME280;36779;52.168;20.878;2023-06-19T12:03:21;100467.02;;;32.15;42.68
50682;BME280;36779;52.168;20.878;2023-06-19T12:05:51;100466.22;;;32.11;42.54
50682;BME280;36779;52.168;20.878;2023-06-19T12:08:22;100467.26;;;32.05;42.31
50682;BME280;36779;52.168;20.878;2023-06-19T12:10:52;100463.64;;;32.01;42.36
50682;BME280;36779;52.168;20.878;2023-06-19T12:13:21;100464.13;;;32.02;42.22
50682;BME280;36779;52.168;20.878;2023-06-19T12:15:52;100461.73;;;32.12;42.32
50682;BME280;36779;52.168;20.878;2023-06-19T12:18:22;100456.73;;;32.20;42.18
50682;BME280;36779;52.168;20.878;2023-06-19T12:20:51;100460.03;;;32.11;41.58
50682;BME280;36779;52.168;20.878;2023-06-19T12:23:20;100459.46;;;31.91;41.49
50682;BME280;36779;52.168;20.878;2023-06-19T12:25:49;100457.84;;;31.85;41.29
50682;BME280;36779;52.168;20.878;2023-06-19T12:28:19;100457.34;;;31.56;40.95
50682;BME280;36779;52.168;20.878;2023-06-19T12:30:48;100459.63;;;31.41;41.03
50682;BME280;36779;52.168;20.878;2023-06-19T12:33:20;100457.30;;;31.41;41.02
50682;BME280;36779;52.168;20.878;2023-06-19T12:35:49;100453.05;;;31.49;41.09
50682;BME280;36779;52.168;20.878;2023-06-19T12:38:19;100452.40;;;31.61;41.07
50682;BME280;36779;52.168;20.878;2023-06-19T12:40:48;100451.30;;;31.64;40.91
50682;BME280;36779;52.168;20.878;2023-06-19T12:43:17;100449.48;;;31.67;40.90
50682;BME280;36779;52.168;20.878;2023-06-19T12:45:48;100449.95;;;31.72;41.03
50682;BME280;36779;52.168;20.878;2023-06-19T12:48:17;100447.11;;;31.81;40.76
50682;BME280;36779;52.168;20.878;2023-06-19T12:50:49;100443.41;;;31.78;40.65
50682;BME280;36779;52.168;20.878;2023-06-19T12:53:18;100444.30;;;31.68;40.36
50682;BME280;36779;52.168;20.878;2023-06-19T12:55:47;100437.84;;;31.49;40.06
50682;BME280;36779;52.168;20.878;2023-06-19T12:58:29;100439.33;;;31.42;40.41
50682;BME280;36779;52.168;20.878;2023-06-19T13:00:58;100437.19;;;31.34;40.21
50682;BME280;36779;52.168;20.878;2023-06-19T13:03:27;100437.79;;;31.15;40.14
50682;BME280;36779;52.168;20.878;2023-06-19T13:05:56;100435.45;;;30.82;39.99
50682;BME280;36779;52.168;20.878;2023-06-19T13:08:28;100431.60;;;30.55;40.16
50682;BME280;36779;52.168;20.878;2023-06-19T13:10:57;100425.83;;;30.55;40.51